Time;durP1;ratioP1;P1;durP2;ratioP2;P2;SDS_P1;SDS_P2;PMS_P1;PMS_P2;Temp;Humidity;BMP_temperature;BMP_pressure;BME280_temperature;BME280_humidity;BME280_pressure;Samples;Min_cycle;Max_cycle;Signal;HPM_P1;HPM_P2
2024/01/20 00:00:37;;;;;;;18.92;17.33;;;7.10;79.50;;;;;;12655484;28;20032;-72
2024/01/20 00:06:39;;;;;;;28.60;26.77;;;7.00;79.40;;;;;;12637669;28;20048;-72
2024/01/20 00:12:42;;;;;;;17.67;16.45;;;7.00;79.30;;;;;;12637923;28;20452;-72
2024/01/20 00:18:44;;;;;;;18.35;16.67;;;7.00;79.70;;;;;;12654680;28;20036;-72
2024/01/20 00:24:45;;;;;;;17.25;16.05;;;7.10;80.00;;;;;;12654533;28;20028;-72
2024/01/20 00:30:47;;;;;;;19.42;17.92;;;7.10;80.20;;;;;;12636406;28;20348;-72
2024/01/20 00:36:51;;;;;;;30.23;27.92;;;7.00;80.00;;;;;;12654258;28;20028;-72
2024/01/20 00:42:52;;;;;;;20.08;18.27;;;6.90;80.00;;;;;;12654092;28;20047;-72
2024/01/20 00:48:54;;;;;;;19.83;18.33;;;6.90;80.10;;;;;;12635870;28;20024;-72
2024/01/20 00:54:55;;;;;;;19.38;17.92;;;7.00;80.60;;;;;;12635759;28;20042;-72
2024/01/20 01:00:57;;;;;;;18.02;16.42;;;6.70;80.60;;;;;;12586317;28;20048;-72
2024/01/20 01:06:58;;;;;;;15.52;14.23;;;6.70;80.40;;;;;;12602063;28;20028;-72
2024/01/20 01:13:00;;;;;;;14.07;12.88;;;6.70;80.30;;;;;;12603145;28;20029;-72
2024/01/20 01:19:01;;;;;;;15.50;14.43;;;6.80;80.20;;;;;;12602242;28;20357;-72
2024/01/20 01:25:04;;;;;;;25.92;24.38;;;6.80;80.80;;;;;;12601762;28;20353;-74
2024/01/20 01:31:05;;;;;;;20.95;19.65;;;6.80;80.70;;;;;;12606352;28;20356;-74
2024/01/20 01:37:07;;;;;;;11.45;10.45;;;6.70;80.70;;;;;;12610986;28;20032;-73
2024/01/20 01:43:08;;;;;;;43.55;41.35;;;6.60;80.70;;;;;;12611910;28;20032;-73
2024/01/20 01:49:11;;;;;;;16.98;15.88;;;6.30;80.50;;;;;;12611393;28;20029;-74
2024/01/20 01:55:12;;;;;;;9.07;8.27;;;6.20;81.10;;;;;;12611156;28;20045;-74
2024/01/20 02:01:14;;;;;;;47.05;44.60;;;6.20;80.70;;;;;;12649834;28;20050;-74
2024/01/20 02:07:16;;;;;;;10.57;9.63;;;6.20;80.40;;;;;;12627209;28;20044;-74
2024/01/20 02:13:20;;;;;;;24.83;23.30;;;6.20;80.10;;;;;;12661103;28;20028;-74
2024/01/20 02:19:21;;;;;;;9.98;9.05;;;6.20;80.00;;;;;;12660525;28;20032;-74
2024/01/20 02:25:23;;;;;;;54.17;51.45;;;6.20;80.00;;;;;;12642115;28;20024;-75
2024/01/20 02:31:24;;;;;;;26.38;24.77;;;6.20;80.00;;;;;;12659911;28;20028;-74
2024/01/20 02:37:26;;;;;;;40.50;38.15;;;6.20;79.80;;;;;;12609426;28;20047;-74
2024/01/20 02:43:28;;;;;;;10.73;9.65;;;5.90;79.80;;;;;;12659234;28;20471;-74
2024/01/20 02:49:30;;;;;;;14.52;13.15;;;5.80;79.90;;;;;;12640908;28;20040;-74
2024/01/20 02:55:32;;;;;;;34.33;32.30;;;5.70;80.00;;;;;;12658670;28;20040;-74
2024/01/20 03:01:34;;;;;;;11.38;10.32;;;5.80;79.80;;;;;;12607419;28;20039;-74
2024/01/20 03:07:35;;;;;;;11.75;10.63;;;5.80;79.60;;;;;;12608462;28;20035;-75
2024/01/20 03:13:37;;;;;;;22.92;21.38;;;5.70;79.40;;;;;;12607608;28;20416;-75
2024/01/20 03:19:39;;;;;;;14.90;13.60;;;5.70;79.40;;;;;;12606127;28;20032;-75
2024/01/20 03:25:41;;;;;;;12.35;11.35;;;5.70;79.40;;;;;;12606346;28;20035;-75
2024/01/20 03:31:43;;;;;;;11.00;9.95;;;5.70;79.60;;;;;;12605416;28;20040;-75
2024/01/20 03:37:44;;;;;;;23.50;21.67;;;5.70;80.50;;;;;;12605695;28;20351;-75
2024/01/20 03:43:46;;;;;;;51.90;48.75;;;5.70;80.50;;;;;;12605942;28;20032;-75
2024/01/20 03:49:47;;;;;;;40.83;38.15;;;5.70;80.40;;;;;;12604662;28;20306;-75
2024/01/20 03:55:49;;;;;;;36.92;34.55;;;5.60;80.40;;;;;;12603880;28;20484;-75
2024/01/20 04:01:51;;;;;;;32.53;30.85;;;5.60;80.80;;;;;;12604375;28;20044;-75
2024/01/20 04:07:52;;;;;;;50.67;47.78;;;5.60;80.90;;;;;;12605592;28;20040;-75
2024/01/20 04:13:54;;;;;;;24.00;22.50;;;5.50;80.90;;;;;;12603614;28;20036;-75
2024/01/20 04:19:55;;;;;;;10.75;9.88;;;5.50;80.60;;;;;;12604595;28;20037;-75
2024/01/20 04:25:57;;;;;;;62.22;58.63;;;5.40;80.80;;;;;;12605016;28;20433;-76
2024/01/20 04:31:58;;;;;;;77.70;74.45;;;5.40;80.50;;;;;;12604255;28;20459;-75
2024/01/20 04:38:00;;;;;;;12.48;11.63;;;5.30;80.50;;;;;;12602919;28;20032;-75
2024/01/20 04:44:02;;;;;;;52.67;50.35;;;5.40;80.70;;;;;;12586316;28;20064;-75
2024/01/20 04:50:03;;;;;;;11.73;10.88;;;5.30;80.90;;;;;;12603835;28;20464;-75
2024/01/20 04:56:05;;;;;;;49.65;47.08;;;5.20;80.80;;;;;;12603688;28;20037;-75
2024/01/20 05:02:07;;;;;;;28.40;27.05;;;4.70;81.40;;;;;;12649161;28;20352;-75
2024/01/20 05:08:08;;;;;;;55.83;53.63;;;4.80;81.50;;;;;;12642684;28;20036;-75
2024/01/20 05:14:10;;;;;;;94.53;90.97;;;4.90;81.50;;;;;;12647086;28;20043;-75
2024/01/20 05:20:15;;;;;;;30.70;29.35;;;5.00;81.40;;;;;;12645973;28;20024;-74
2024/01/20 05:26:16;;;;;;;67.45;64.80;;;4.90;81.20;;;;;;12644934;28;20035;-73
2024/01/20 05:32:18;;;;;;;64.68;62.13;;;4.80;81.00;;;;;;12662808;28;20345;-73
2024/01/20 05:38:20;;;;;;;55.97;53.58;;;4.70;81.00;;;;;;12662490;28;20333;-73
2024/01/20 05:44:21;;;;;;;16.00;15.02;;;4.80;81.00;;;;;;12644047;28;20035;-73
2024/01/20 05:50:23;;;;;;;56.90;54.50;;;4.80;81.00;;;;;;12661915;28;20024;-74
2024/01/20 05:56:25;;;;;;;114.03;109.32;;;4.70;81.00;;;;;;12644460;28;20054;-73
2024/01/20 06:02:26;;;;;;;63.72;61.13;;;4.50;81.10;;;;;;12658305;28;20352;-73
2024/01/20 06:08:28;;;;;;;51.30;49.20;;;4.60;81.00;;;;;;12658036;28;20039;-73
2024/01/20 06:14:29;;;;;;;57.03;54.20;;;4.60;80.90;;;;;;12658571;28;20055;-74
2024/01/20 06:20:32;;;;;;;52.47;50.30;;;4.60;80.60;;;;;;12657228;28;20043;-73
2024/01/20 06:26:33;;;;;;;118.20;113.82;;;4.60;80.70;;;;;;12639468;28;20301;-74
2024/01/20 06:32:35;;;;;;;98.85;95.13;;;4.40;80.70;;;;;;12657486;28;20035;-74
2024/01/20 06:38:37;;;;;;;54.58;52.10;;;4.40;81.00;;;;;;12622934;28;20028;-74
2024/01/20 06:44:38;;;;;;;59.67;57.33;;;4.40;81.10;;;;;;12638662;28;20039;-74
2024/01/20 06:50:43;;;;;;;47.92;45.75;;;4.50;80.90;;;;;;12656880;28;20326;-74
2024/01/20 06:56:44;;;;;;;70.15;67.07;;;4.40;80.80;;;;;;12595861;22;1417115;-73
2024/01/20 07:02:46;;;;;;;55.90;53.45;;;4.40;80.80;;;;;;12589809;28;20024;-74
2024/01/20 07:08:48;;;;;;;46.65;44.38;;;4.40;80.60;;;;;;12573438;28;20045;-74
2024/01/20 07:14:51;;;;;;;79.90;76.50;;;4.30;80.70;;;;;;12608247;28;20029;-74
2024/01/20 07:21:18;;;;;;;56.53;54.00;;;4.20;80.80;;;;;;12589289;28;20031;-74
2024/01/20 07:27:20;;;;;;;51.95;49.53;;;4.20;80.70;;;;;;12588331;28;20032;-73
2024/01/20 07:33:22;;;;;;;88.57;84.95;;;4.20;80.70;;;;;;12572401;28;20025;-73
2024/01/20 07:39:39;;;;;;;85.85;82.10;;;4.10;80.90;;;;;;12606315;28;20071;-74
2024/01/20 07:45:43;;;;;;;84.15;80.68;;;4.20;81.00;;;;;;12588223;28;20051;-74
2024/01/20 07:51:45;;;;;;;71.53;68.45;;;4.20;81.10;;;;;;12606402;28;20028;-74
2024/01/20 07:57:48;;;;;;;78.80;75.40;;;4.20;81.10;;;;;;12605478;28;20040;-74
2024/01/20 08:04:07;;;;;;;58.95;56.47;;;4.30;81.30;;;;;;12589251;28;20040;-74
2024/01/20 08:10:11;;;;;;;71.38;68.35;;;4.30;81.30;;;;;;12604908;28;20028;-74
2024/01/20 08:16:23;;;;;;;103.57;99.47;;;4.20;81.70;;;;;;12588137;28;20028;-74
2024/01/20 08:22:26;;;;;;;68.45;65.20;;;4.40;82.00;;;;;;12604656;28;20426;-74
2024/01/20 08:28:29;;;;;;;93.30;89.57;;;4.50;82.30;;;;;;12561217;28;20037;-74
2024/01/20 08:34:30;;;;;;;61.88;59.15;;;4.60;82.60;;;;;;12554891;28;20437;-75
2024/01/20 08:40:39;;;;;;;20.75;19.58;;;4.60;82.70;;;;;;12554531;28;20025;-75
2024/01/20 08:46:45;;;;;;;76.72;73.45;;;4.70;82.80;;;;;;12537601;28;20036;-75
2024/01/20 08:52:48;;;;;;;56.47;53.53;;;4.70;83.20;;;;;;12549977;28;20028;-75
2024/01/20 08:58:51;;;;;;;32.50;30.98;;;4.80;83.30;;;;;;12599752;28;20036;-75
2024/01/20 09:05:37;;;;;;;49.97;47.80;;;4.80;83.60;;;;;;12603826;28;20441;-75
2024/01/20 09:11:38;;;;;;;34.78;33.08;;;4.80;83.60;;;;;;12586558;28;20040;-75
2024/01/20 09:17:40;;;;;;;14.27;13.38;;;4.90;83.50;;;;;;12603177;28;20049;-75
2024/01/20 09:23:42;;;;;;;12.15;11.27;;;4.80;83.60;;;;;;12603065;28;20032;-75
2024/01/20 09:29:43;;;;;;;29.90;28.38;;;4.90;83.80;;;;;;12602765;28;20047;-75
2024/01/20 09:36:06;;;;;;;53.95;51.00;;;4.90;83.80;;;;;;12602803;28;20460;-75
2024/01/20 09:42:08;;;;;;;20.23;19.20;;;5.00;84.00;;;;;;12584750;28;20035;-75
2024/01/20 09:48:13;;;;;;;35.53;33.85;;;5.00;84.00;;;;;;12568973;28;20463;-75
2024/01/20 09:54:20;;;;;;;19.92;18.85;;;5.10;84.10;;;;;;12609049;28;20428;-75
2024/01/20 10:00:24;;;;;;;13.50;12.40;;;5.10;84.10;;;;;;12612149;28;20186;-75
2024/01/20 10:06:26;;;;;;;24.58;23.48;;;5.20;83.50;;;;;;12610686;28;20036;-75
2024/01/20 10:12:28;;;;;;;34.90;32.75;;;5.20;83.10;;;;;;12610711;28;20459;-75
2024/01/20 10:18:30;;;;;;;46.47;43.88;;;5.20;82.00;;;;;;12611520;28;20036;-75
2024/01/20 10:24:32;;;;;;;52.50;49.50;;;5.20;82.70;;;;;;12609913;28;20032;-75
2024/01/20 10:30:37;;;;;;;47.28;44.88;;;5.20;81.80;;;;;;12609358;28;20341;-76
2024/01/20 10:36:43;;;;;;;10.32;9.55;;;5.30;82.10;;;;;;12591828;28;20036;-75
2024/01/20 10:42:49;;;;;;;51.72;49.22;;;5.40;82.60;;;;;;12591269;28;20334;-75
2024/01/20 10:48:53;;;;;;;36.28;34.47;;;5.50;83.00;;;;;;12591776;28;20040;-75
2024/01/20 10:54:55;;;;;;;21.02;19.85;;;5.60;83.20;;;;;;12608709;28;20037;-75
2024/01/20 11:00:57;;;;;;;11.15;10.48;;;5.70;82.90;;;;;;12608788;28;20029;-75
2024/01/20 11:07:00;;;;;;;52.90;50.15;;;5.90;82.90;;;;;;12606826;28;20028;-75
2024/01/20 11:13:06;;;;;;;25.48;24.20;;;6.10;82.90;;;;;;12607783;28;20059;-75
2024/01/20 11:19:11;;;;;;;21.48;20.20;;;6.20;82.10;;;;;;12589653;28;20032;-72
2024/01/20 11:25:14;;;;;;;18.27;17.33;;;6.40;81.80;;;;;;12590502;28;20041;-75
2024/01/20 11:31:19;;;;;;;7.75;7.05;;;6.50;81.70;;;;;;12606904;28;20024;-75
2024/01/20 11:37:23;;;;;;;22.40;21.25;;;6.70;80.50;;;;;;12589900;28;20028;-74
2024/01/20 11:43:26;;;;;;;79.82;76.50;;;6.90;80.80;;;;;;12606636;28;20036;-75
2024/01/20 11:49:28;;;;;;;16.08;15.13;;;7.00;79.30;;;;;;12588825;28;20052;-75
2024/01/20 11:55:30;;;;;;;74.20;71.15;;;7.20;79.60;;;;;;12572140;28;20044;-75
2024/01/20 12:01:31;;;;;;;51.90;48.72;;;7.30;79.50;;;;;;12588428;28;20043;-75
2024/01/20 12:07:43;;;;;;;57.40;55.03;;;7.40;79.40;;;;;;12587745;28;20060;-72
2024/01/20 12:13:48;;;;;;;106.82;102.72;;;7.60;78.40;;;;;;12604539;28;20032;-71
2024/01/20 12:19:50;;;;;;;91.53;87.90;;;7.60;79.00;;;;;;12604743;28;20091;-72
2024/01/20 12:25:53;;;;;;;69.45;66.72;;;7.50;77.40;;;;;;12604923;28;20024;-71
2024/01/20 12:32:03;;;;;;;53.20;51.08;;;7.50;77.90;;;;;;12586600;28;20031;-72
2024/01/20 12:38:05;;;;;;;72.05;69.25;;;7.50;75.90;;;;;;12604769;28;20028;-72
2024/01/20 12:44:17;;;;;;;86.43;82.88;;;7.50;75.80;;;;;;12553550;28;20041;-72
2024/01/20 12:50:21;;;;;;;48.40;46.45;;;7.40;74.90;;;;;;12603783;28;20032;-72
2024/01/20 12:56:44;;;;;;;77.60;74.43;;;7.40;74.50;;;;;;12604347;28;20028;-75
2024/01/20 13:02:46;;;;;;;97.78;93.90;;;7.50;75.10;;;;;;12603648;28;20024;-75
2024/01/20 13:08:48;;;;;;;105.40;101.40;;;7.60;74.00;;;;;;12603294;28;20029;-74
2024/01/20 13:14:50;;;;;;;64.68;62.03;;;7.60;73.90;;;;;;12603552;28;20024;-75
2024/01/20 13:20:51;;;;;;;40.08;38.45;;;7.70;73.80;;;;;;12587503;28;20484;-74
2024/01/20 13:26:53;;;;;;;80.32;77.30;;;7.90;73.50;;;;;;12588961;28;20436;-74
2024/01/20 13:32:55;;;;;;;73.25;70.53;;;7.90;73.50;;;;;;12594887;28;20041;-75
2024/01/20 13:38:57;;;;;;;54.92;52.78;;;7.90;72.70;;;;;;12612743;28;20036;-74
2024/01/20 13:45:00;;;;;;;45.63;43.83;;;8.10;72.90;;;;;;12578167;28;20048;-74
2024/01/20 13:51:02;;;;;;;65.32;62.85;;;8.10;71.50;;;;;;12612188;28;20024;-75
2024/01/20 13:57:06;;;;;;;73.65;70.80;;;8.20;71.80;;;;;;12612868;28;20040;-74
2024/01/20 14:03:12;;;;;;;57.42;55.08;;;8.20;72.30;;;;;;12593724;28;20063;-74
2024/01/20 14:09:14;;;;;;;116.15;111.82;;;8.20;72.40;;;;;;12594686;28;20067;-74
2024/01/20 14:15:17;;;;;;;116.32;112.03;;;8.20;72.90;;;;;;12593136;28;20349;-75
2024/01/20 14:21:27;;;;;;;93.20;89.47;;;8.30;72.90;;;;;;12592846;28;20033;-74
2024/01/20 14:27:29;;;;;;;96.93;93.13;;;8.50;72.90;;;;;;12610058;28;20028;-72
2024/01/20 14:33:30;;;;;;;30.48;29.23;;;8.90;71.60;;;;;;12591513;28;20036;-72
2024/01/20 14:39:35;;;;;;;33.22;31.95;;;9.30;70.90;;;;;;12608922;28;20033;-72
2024/01/20 14:45:37;;;;;;;16.95;16.20;;;9.30;70.70;;;;;;12591255;28;20032;-72
2024/01/20 14:51:41;;;;;;;18.70;17.90;;;9.20;71.10;;;;;;12608896;28;20024;-72
2024/01/20 14:57:43;;;;;;;24.08;23.02;;;8.90;72.20;;;;;;12588454;22;20361;-71
2024/01/20 15:03:48;;;;;;;14.30;11.77;;;9.20;72.30;;;;;;12541478;28;20036;-72
2024/01/20 15:09:53;;;;;;;36.42;34.60;;;8.90;72.80;;;;;;12524648;28;20353;-72
2024/01/20 15:15:57;;;;;;;60.47;58.20;;;8.70;73.90;;;;;;12540325;28;20040;-72
2024/01/20 15:21:59;;;;;;;33.58;32.30;;;8.70;74.70;;;;;;12540202;28;20048;-72
2024/01/20 15:28:00;;;;;;;30.80;29.45;;;8.90;74.70;;;;;;12540366;28;20451;-72
2024/01/20 15:34:02;;;;;;;15.95;15.05;;;9.00;75.50;;;;;;12539442;28;20448;-72
2024/01/20 15:40:06;;;;;;;18.70;17.85;;;9.40;75.90;;;;;;12556974;28;20346;-72
2024/01/20 15:46:07;;;;;;;48.95;46.90;;;9.10;76.00;;;;;;12522915;28;20041;-72
2024/01/20 15:52:09;;;;;;;85.90;82.40;;;8.40;77.10;;;;;;12555967;28;20448;-72
2024/01/20 15:58:12;;;;;;;51.35;49.28;;;7.80;77.90;;;;;;12522891;28;20041;-72
2024/01/20 16:04:15;;;;;;;40.38;38.42;;;7.40;78.50;;;;;;12506643;28;20372;-74
2024/01/20 16:10:17;;;;;;;16.45;15.52;;;7.20;78.90;;;;;;12522670;28;20033;-74
2024/01/20 16:16:19;;;;;;;12.52;11.75;;;6.90;79.20;;;;;;12555441;28;20033;-74
2024/01/20 16:22:22;;;;;;;12.20;11.20;;;6.70;79.40;;;;;;12557064;28;20437;-74
2024/01/20 16:28:24;;;;;;;8.63;7.93;;;6.50;79.60;;;;;;12537502;28;20056;-75
2024/01/20 16:34:26;;;;;;;10.30;7.97;;;6.40;79.80;;;;;;12506469;28;20036;-74
2024/01/20 16:40:28;;;;;;;7.28;6.57;;;6.20;80.00;;;;;;12488842;28;20465;-74
2024/01/20 16:46:30;;;;;;;9.27;7.40;;;6.00;80.10;;;;;;12503592;28;20037;-74
2024/01/20 16:52:32;;;;;;;49.40;46.95;;;5.90;80.40;;;;;;12503839;28;20045;-74
2024/01/20 16:58:34;;;;;;;11.38;8.77;;;5.90;80.40;;;;;;12518739;28;20048;-74
2024/01/20 17:04:36;;;;;;;14.40;12.90;;;5.90;80.40;;;;;;12564009;28;20040;-74
2024/01/20 17:10:38;;;;;;;16.42;14.85;;;5.70;80.50;;;;;;12563208;28;20036;-74
2024/01/20 17:16:39;;;;;;;14.52;12.55;;;5.70;80.60;;;;;;12486737;28;20338;-74
2024/01/20 17:22:59;;;;;;;58.20;54.90;;;5.70;80.60;;;;;;12514335;28;20433;-74
2024/01/20 17:29:02;;;;;;;33.45;31.13;;;5.60;80.60;;;;;;12496320;28;20037;-75
2024/01/20 17:35:05;;;;;;;37.63;35.03;;;5.50;80.60;;;;;;12480674;28;20041;-73
2024/01/20 17:41:08;;;;;;;18.42;15.85;;;5.40;80.80;;;;;;12513088;28;20037;-73
2024/01/20 17:47:13;;;;;;;68.20;63.85;;;5.40;80.80;;;;;;12496214;28;20041;-73
2024/01/20 17:53:15;;;;;;;21.88;19.42;;;5.20;80.80;;;;;;12512554;28;20033;-73
2024/01/20 17:59:17;;;;;;;26.15;23.88;;;5.10;81.00;;;;;;12512226;28;20052;-73
2024/01/20 18:05:21;;;;;;;82.88;78.32;;;5.10;81.00;;;;;;12494294;28;20045;-73
2024/01/20 18:11:23;;;;;;;26.30;23.77;;;5.00;81.10;;;;;;12493818;28;20038;-73
2024/01/20 18:17:25;;;;;;;23.10;20.15;;;5.00;81.20;;;;;;12493235;28;20437;-72
2024/01/20 18:23:26;;;;;;;76.30;72.03;;;4.90;81.00;;;;;;12511169;28;20350;-72
2024/01/20 18:29:28;;;;;;;64.70;60.05;;;4.90;81.00;;;;;;12493051;28;20033;-73
2024/01/20 18:35:30;;;;;;;42.63;39.58;;;4.90;81.00;;;;;;12493514;28;20033;-73
2024/01/20 18:41:31;;;;;;;39.88;37.08;;;4.90;81.00;;;;;;12510855;28;20438;-74
2024/01/20 18:47:47;;;;;;;44.45;41.28;;;4.70;81.00;;;;;;12492789;28;20354;-73
2024/01/20 18:53:48;;;;;;;36.92;33.15;;;4.70;81.00;;;;;;12509947;28;20049;-76
2024/01/20 18:59:50;;;;;;;31.70;28.75;;;4.70;80.90;;;;;;12509874;28;20037;-76
2024/01/20 19:05:52;;;;;;;46.33;42.85;;;4.70;80.90;;;;;;12509182;28;20036;-76
2024/01/20 19:11:56;;;;;;;46.78;43.65;;;4.60;80.90;;;;;;12492968;28;20040;-76
2024/01/20 19:17:57;;;;;;;47.88;44.28;;;4.50;80.90;;;;;;12491667;28;20097;-76
2024/01/20 19:23:59;;;;;;;29.30;26.67;;;4.50;80.90;;;;;;12507372;28;20033;-76
2024/01/20 19:30:02;;;;;;;26.67;23.98;;;4.40;80.90;;;;;;12490482;28;20037;-76
2024/01/20 19:36:04;;;;;;;41.40;38.38;;;4.40;80.90;;;;;;12490208;28;20029;-76
2024/01/20 19:42:08;;;;;;;40.83;36.72;;;4.20;81.00;;;;;;12490389;28;20147;-76
2024/01/20 19:48:11;;;;;;;30.23;27.17;;;4.20;81.00;;;;;;12507132;28;20029;-76
2024/01/20 19:54:13;;;;;;;39.35;36.30;;;4.10;81.10;;;;;;12506874;28;20029;-76
2024/01/20 20:00:19;;;;;;;29.50;26.30;;;4.10;81.20;;;;;;12489611;28;20461;-76
2024/01/20 20:06:21;;;;;;;30.35;27.58;;;4.10;81.10;;;;;;12506995;28;20033;-75
2024/01/20 20:12:23;;;;;;;37.65;34.80;;;4.10;81.10;;;;;;12506053;28;20025;-75
2024/01/20 20:18:24;;;;;;;32.85;30.05;;;4.10;81.10;;;;;;12488851;28;20349;-76
2024/01/20 20:24:38;;;;;;;39.80;35.83;;;4.00;81.10;;;;;;12505617;28;20033;-75
2024/01/20 20:30:40;;;;;;;24.48;22.00;;;4.00;81.10;;;;;;12505414;28;20045;-75
2024/01/20 20:36:42;;;;;;;25.40;20.15;;;3.90;81.10;;;;;;12505154;28;20035;-75
2024/01/20 20:42:43;;;;;;;25.55;22.80;;;3.90;81.10;;;;;;12505796;28;20044;-75
2024/01/20 20:48:45;;;;;;;30.13;24.80;;;3.90;81.00;;;;;;12504679;28;20037;-75
2024/01/20 20:54:51;;;;;;;22.67;20.60;;;3.90;81.00;;;;;;12504674;28;20033;-75
2024/01/20 21:00:52;;;;;;;22.85;20.50;;;3.80;80.80;;;;;;12487321;28;20396;-75
2024/01/20 21:06:54;;;;;;;22.33;20.08;;;3.70;80.90;;;;;;12504518;28;20034;-75
2024/01/20 21:12:57;;;;;;;27.65;24.85;;;3.70;81.00;;;;;;12471149;28;20037;-75
2024/01/20 21:19:00;;;;;;;25.83;23.23;;;3.70;81.00;;;;;;12504413;28;20033;-74
2024/01/20 21:25:03;;;;;;;29.23;26.55;;;3.70;80.90;;;;;;12504752;28;20029;-76
2024/01/20 21:31:06;;;;;;;24.27;21.77;;;3.70;80.80;;;;;;12504363;28;20041;-74
2024/01/20 21:37:08;;;;;;;27.75;24.75;;;3.70;80.70;;;;;;12504095;28;20033;-75
2024/01/20 21:43:10;;;;;;;20.85;18.85;;;3.70;80.70;;;;;;12503916;28;20037;-74
2024/01/20 21:49:13;;;;;;;30.48;25.80;;;3.70;80.80;;;;;;12508765;28;20029;-74
2024/01/20 21:55:15;;;;;;;25.98;23.42;;;3.60;80.80;;;;;;12512890;28;20037;-76
2024/01/20 22:01:17;;;;;;;22.75;20.00;;;3.70;80.80;;;;;;12512645;28;20037;-76
2024/01/20 22:07:18;;;;;;;19.38;17.42;;;3.70;80.80;;;;;;12511976;28;20071;-75
2024/01/20 22:13:21;;;;;;;27.33;24.67;;;3.60;80.90;;;;;;12511909;28;20438;-74
2024/01/20 22:19:22;;;;;;;21.25;19.13;;;3.70;81.40;;;;;;12494074;28;20041;-75
2024/01/20 22:25:24;;;;;;;24.55;22.40;;;3.50;81.20;;;;;;12511870;28;20021;-75
2024/01/20 22:31:26;;;;;;;23.80;20.58;;;3.50;81.10;;;;;;12510870;28;20056;-75
2024/01/20 22:37:28;;;;;;;22.52;20.42;;;3.40;81.10;;;;;;12493093;28;20458;-75
2024/01/20 22:43:31;;;;;;;23.98;21.08;;;3.40;81.10;;;;;;12492718;28;20450;-75
2024/01/20 22:49:33;;;;;;;25.83;23.13;;;3.40;81.00;;;;;;12510715;28;20425;-74
2024/01/20 22:55:36;;;;;;;28.77;25.85;;;3.30;81.20;;;;;;12509922;28;20030;-75
2024/01/20 23:01:39;;;;;;;23.42;21.05;;;3.40;81.20;;;;;;12556681;22;20049;-75
2024/01/20 23:07:43;;;;;;;24.00;21.75;;;3.30;81.10;;;;;;12524837;28;20071;-75
2024/01/20 23:13:45;;;;;;;23.75;21.45;;;3.20;81.00;;;;;;12558451;28;20029;-74
2024/01/20 23:19:50;;;;;;;34.05;30.30;;;3.20;81.30;;;;;;12558188;28;20032;-75
2024/01/20 23:25:59;;;;;;;27.17;24.50;;;3.20;81.40;;;;;;12558476;28;20033;-75
2024/01/20 23:32:03;;;;;;;28.98;25.95;;;3.20;81.30;;;;;;12540370;28;20021;-74
2024/01/20 23:38:04;;;;;;;33.17;29.85;;;3.10;81.10;;;;;;12523733;28;20044;-75
2024/01/20 23:44:07;;;;;;;31.60;28.50;;;3.00;81.50;;;;;;12557604;28;20032;-74
2024/01/20 23:50:09;;;;;;;32.42;29.20;;;3.10;81.70;;;;;;12556615;28;20048;-75
2024/01/20 23:56:13;;;;;;;32.53;29.27;;;3.20;82.10;;;;;;12538754;28;20040;-74
